General Aviation Weather

Text Reports

Enter one or more of the following location identifiers separated by a space:

Zip Code, Four-Character ICAO or Three-Character IATA airport codes.

METAR - Aviation Routine Weather Report
KAMW - Ames, Iowa
Updated at 12:53 PM GMT on April 21, 2015 (7:53 AM CDT):
METAR KAMW 211253Z AUTO 26012KT 10SM CLR 03/M02 A2972 RMK AO2 SLP067 T00281022
TAF - Terminal Area Forecast
KAMW - Ames, Iowa
Updated at 12:53 PM GMT on April 21, 2015 (7:53 AM CDT):
No TAF is currently available for this location.
Decoded:
No decoded TAF is available.
PIREP - Pilot Weather Report
KAMW - Ames, Iowa
Updated at 12:53 PM GMT on April 21, 2015 (7:53 AM CDT):
No PIREP is currently available for this location.
AIRMET - Airmens Meteorological Information
KAMW - Ames, Iowa
Updated at 12:53 PM GMT on April 21, 2015 (7:53 AM CDT):
No AIRMET is currently available for this location.
SIGMET - Significant Meteorological Information
KAMW - Ames, Iowa
Updated at 12:53 PM GMT on April 21, 2015 (7:53 AM CDT):
No SIGMET is currently available for this location.
NOTAM - Notice to Airmen
KAMW - Ames, Iowa
Updated at 12:53 PM GMT on April 21, 2015 (7:53 AM CDT):
No NOTAM is currently available for this location.
Forecast Area
KAMW - Ames, Iowa
Updated at 12:53 PM GMT on April 21, 2015 (7:53 AM CDT):
No NOTAM is currently available for this location.
Aviation Weather Maps